createdAt,value
2023-04-16T00:00:29.661Z,955.0684
2023-04-16T00:01:33.561Z,955.0609
2023-04-16T00:02:37.624Z,955.0641
2023-04-16T00:03:41.815Z,955.0634
2023-04-16T00:04:45.863Z,955.0725
2023-04-16T00:05:49.746Z,955.0734
2023-04-16T00:06:53.655Z,955.0750
2023-04-16T00:07:57.530Z,955.0784
2023-04-16T00:09:01.414Z,955.0700
2023-04-16T00:10:05.333Z,955.0667
2023-04-16T00:11:09.193Z,955.0692
2023-04-16T00:12:13.083Z,955.0634
2023-04-16T00:13:16.985Z,955.0508
2023-04-16T00:14:20.877Z,955.0475
2023-04-16T00:15:24.784Z,955.0508
2023-04-16T00:16:28.995Z,955.0600
2023-04-16T00:17:32.963Z,955.0600
2023-04-16T00:18:36.841Z,955.0591
2023-04-16T00:19:40.742Z,955.0600
2023-04-16T00:20:44.615Z,955.0684
2023-04-16T00:21:48.754Z,955.0684
2023-04-16T00:22:52.652Z,955.0700
2023-04-16T00:23:56.745Z,955.0583
2023-04-16T00:25:00.646Z,955.0616
2023-04-16T00:26:04.555Z,955.0500
2023-04-16T00:27:08.440Z,955.0466
2023-04-16T00:28:12.350Z,955.0367
2023-04-16T00:29:16.236Z,955.0367
2023-04-16T00:30:20.132Z,955.0283
2023-04-16T00:31:24.350Z,955.0441
2023-04-16T00:32:28.379Z,955.0525
2023-04-16T00:33:32.287Z,955.0583
2023-04-16T00:34:32.496Z,955.0591
2023-04-16T00:35:36.392Z,955.0625
2023-04-16T00:36:40.329Z,955.0767
2023-04-16T00:37:44.206Z,955.0834
2023-04-16T00:38:48.320Z,955.0734
2023-04-16T00:39:52.231Z,955.0759
2023-04-16T00:40:56.100Z,955.0842
2023-04-16T00:41:59.995Z,955.0917
2023-04-16T00:43:03.875Z,955.0809
2023-04-16T00:44:07.791Z,955.0759
2023-04-16T00:45:11.676Z,955.0742
2023-04-16T00:46:15.610Z,955.0725
2023-04-16T00:47:19.484Z,955.0734
2023-04-16T00:48:23.378Z,955.0792
2023-04-16T00:49:27.278Z,955.0784
2023-04-16T00:50:31.160Z,955.0792
2023-04-16T00:51:35.060Z,955.0825
2023-04-16T00:52:38.936Z,955.0784
2023-04-16T00:53:42.838Z,955.0875
2023-04-16T00:54:46.720Z,955.0842
2023-04-16T00:55:50.634Z,955.0834
2023-04-16T00:56:54.503Z,955.0809
2023-04-16T00:57:58.410Z,955.0759
2023-04-16T00:59:02.328Z,955.0775
2023-04-16T01:00:06.227Z,955.0834
2023-04-16T01:01:10.138Z,955.0875
2023-04-16T01:02:14.108Z,955.0925
2023-04-16T01:03:18.038Z,955.1000
2023-04-16T01:04:22.020Z,955.1133
2023-04-16T01:05:25.898Z,955.1200
2023-04-16T01:06:29.804Z,955.1259
2023-04-16T01:07:33.690Z,955.1150
2023-04-16T01:08:37.597Z,955.1141
2023-04-16T01:09:41.520Z,955.1033
2023-04-16T01:10:45.410Z,955.1058
2023-04-16T01:11:49.310Z,955.1075
2023-04-16T01:12:53.202Z,955.1100
2023-04-16T01:13:57.105Z,955.1050
2023-04-16T01:15:00.995Z,955.1141
2023-04-16T01:16:04.960Z,955.1150
2023-04-16T01:17:09.039Z,955.1225
2023-04-16T01:18:12.967Z,955.1250
2023-04-16T01:19:16.814Z,955.1359
2023-04-16T01:20:20.713Z,955.1309
2023-04-16T01:21:24.588Z,955.1409
2023-04-16T01:22:28.507Z,955.1467
2023-04-16T01:23:32.371Z,955.1384
2023-04-16T01:24:36.287Z,955.1359
2023-04-16T01:25:40.157Z,955.1284
2023-04-16T01:26:44.058Z,955.1292
2023-04-16T01:27:47.936Z,955.1241
2023-04-16T01:28:52.157Z,955.1241
2023-04-16T01:29:56.052Z,955.1250
2023-04-16T01:30:59.946Z,955.1208
2023-04-16T01:32:04.139Z,955.1234
2023-04-16T01:33:08.031Z,955.1384
2023-04-16T01:34:11.937Z,955.1367
2023-04-16T01:35:15.821Z,955.1409
2023-04-16T01:36:19.731Z,955.1508
2023-04-16T01:37:23.617Z,955.1500
2023-04-16T01:38:27.515Z,955.1633
2023-04-16T01:39:31.602Z,955.1725
2023-04-16T01:40:35.511Z,955.1800
2023-04-16T01:41:39.406Z,955.1741
2023-04-16T01:42:43.309Z,955.1783
2023-04-16T01:43:47.423Z,955.1816
2023-04-16T01:44:51.308Z,955.1950
2023-04-16T01:45:55.207Z,955.2059
2023-04-16T01:46:59.140Z,955.2109
2023-04-16T01:48:03.084Z,955.2142
2023-04-16T01:49:07.047Z,955.2266
2023-04-16T01:50:11.012Z,955.2316
2023-04-16T01:51:14.913Z,955.2458
2023-04-16T01:52:18.795Z,955.2484
2023-04-16T01:53:22.692Z,955.2525
2023-04-16T01:54:26.805Z,955.2567
2023-04-16T01:55:30.710Z,955.2684
2023-04-16T01:56:34.588Z,955.2684
2023-04-16T01:57:38.509Z,955.2817
2023-04-16T01:58:42.379Z,955.2808
2023-04-16T01:59:46.277Z,955.2966
2023-04-16T02:00:50.167Z,955.3000
2023-04-16T02:01:54.099Z,955.3200
2023-04-16T02:02:58.069Z,955.3325
2023-04-16T02:04:02.339Z,955.3334
2023-04-16T02:05:07.097Z,955.3433
2023-04-16T02:06:07.810Z,955.3510
2023-04-16T02:07:11.730Z,955.3483
2023-04-16T02:08:15.605Z,955.3492
2023-04-16T02:09:19.718Z,955.3616
2023-04-16T02:10:31.156Z,955.3666
2023-04-16T02:11:24.457Z,955.3780
2023-04-16T02:12:28.363Z,955.3792
2023-04-16T02:13:32.281Z,955.3716
2023-04-16T02:14:36.475Z,955.3683
2023-04-16T02:15:40.347Z,955.3708
2023-04-16T02:16:40.877Z,955.3746
2023-04-16T02:17:44.854Z,955.3842
2023-04-16T02:18:48.718Z,955.3817
2023-04-16T02:19:52.646Z,955.3967
2023-04-16T02:20:56.524Z,955.3984
2023-04-16T02:22:00.428Z,955.3892
2023-04-16T02:23:04.289Z,955.3950
2023-04-16T02:24:08.203Z,955.4025
2023-04-16T02:25:12.076Z,955.3950
2023-04-16T02:26:15.980Z,955.3992
2023-04-16T02:27:19.884Z,955.4058
2023-04-16T02:28:23.758Z,955.3992
2023-04-16T02:29:27.817Z,955.3984
2023-04-16T02:30:31.719Z,955.3942
2023-04-16T02:31:35.667Z,955.3900
2023-04-16T02:32:39.574Z,955.3909
2023-04-16T02:33:43.478Z,955.4142
2023-04-16T02:34:47.381Z,955.4166
2023-04-16T02:35:51.271Z,955.4266
2023-04-16T02:36:55.171Z,955.4316
2023-04-16T02:37:59.080Z,955.4391
2023-04-16T02:39:02.949Z,955.4333
2023-04-16T02:40:06.832Z,955.4316
2023-04-16T02:41:10.736Z,955.4316
2023-04-16T02:42:14.626Z,955.4359
2023-04-16T02:43:18.524Z,955.4509
2023-04-16T02:44:22.652Z,955.4525
2023-04-16T02:45:26.538Z,955.4425
2023-04-16T02:46:30.912Z,955.4425
2023-04-16T02:47:34.823Z,955.4341
2023-04-16T02:48:38.731Z,955.4467
2023-04-16T02:49:42.622Z,955.4550
2023-04-16T02:50:46.509Z,955.4459
2023-04-16T02:51:50.615Z,955.4417
2023-04-16T02:52:54.509Z,955.4350
2023-04-16T02:53:58.394Z,955.4475
2023-04-16T02:55:02.307Z,955.4475
2023-04-16T02:56:06.210Z,955.4492
2023-04-16T02:57:10.340Z,955.4484
2023-04-16T02:58:14.235Z,955.4517
2023-04-16T02:59:18.421Z,955.4475
2023-04-16T03:00:22.334Z,955.4442
2023-04-16T03:01:26.277Z,955.4400
2023-04-16T03:02:30.263Z,955.4375
2023-04-16T03:03:34.143Z,955.4333
2023-04-16T03:04:38.458Z,955.4200
2023-04-16T03:05:42.493Z,955.4200
2023-04-16T03:06:46.381Z,955.4216
2023-04-16T03:07:50.268Z,955.4233
2023-04-16T03:08:54.151Z,955.4241
2023-04-16T03:09:58.054Z,955.4233
2023-04-16T03:11:01.934Z,955.4208
2023-04-16T03:12:06.035Z,955.4158
2023-04-16T03:13:09.930Z,955.4166
2023-04-16T03:14:14.030Z,955.4083
2023-04-16T03:15:17.969Z,955.4150
2023-04-16T03:16:22.104Z,955.4150
2023-04-16T03:17:26.028Z,955.4191
2023-04-16T03:18:29.899Z,955.4241
2023-04-16T03:19:34.004Z,955.4216
2023-04-16T03:20:37.923Z,955.4241
2023-04-16T03:21:41.837Z,955.4275
2023-04-16T03:22:45.749Z,955.4316
2023-04-16T03:23:49.647Z,955.4366
2023-04-16T03:24:53.558Z,955.4484
2023-04-16T03:25:57.486Z,955.4492
2023-04-16T03:27:01.609Z,955.4534
2023-04-16T03:28:05.513Z,955.4517
2023-04-16T03:29:05.860Z,955.4554
2023-04-16T03:30:09.758Z,955.4608
2023-04-16T03:31:13.931Z,955.4633
2023-04-16T03:32:17.858Z,955.4750
2023-04-16T03:33:21.736Z,955.4775
2023-04-16T03:34:25.626Z,955.4941
2023-04-16T03:35:29.532Z,955.5000
2023-04-16T03:36:33.674Z,955.5042
2023-04-16T03:37:37.573Z,955.5192
2023-04-16T03:38:41.484Z,955.5134
2023-04-16T03:39:45.623Z,955.5209
2023-04-16T03:40:49.486Z,955.5209
2023-04-16T03:41:53.414Z,955.5192
2023-04-16T03:42:57.300Z,955.5267
2023-04-16T03:44:01.405Z,955.5267
2023-04-16T03:45:05.316Z,955.5350
2023-04-16T03:46:09.243Z,955.5358
2023-04-16T03:47:13.367Z,955.5367
2023-04-16T03:48:17.267Z,955.5450
2023-04-16T03:49:21.358Z,955.5500
2023-04-16T03:50:25.296Z,955.5475
2023-04-16T03:51:29.149Z,955.5400
2023-04-16T03:52:33.051Z,955.5575
2023-04-16T03:53:36.921Z,955.5591
2023-04-16T03:54:40.824Z,955.5583
2023-04-16T03:55:44.692Z,955.5609
2023-04-16T03:56:48.892Z,955.5734
2023-04-16T03:57:52.811Z,955.5667
2023-04-16T03:58:56.699Z,955.5700
2023-04-16T04:00:00.569Z,955.5692
2023-04-16T04:01:04.480Z,955.5800
2023-04-16T04:02:08.461Z,955.5842
2023-04-16T04:03:12.654Z,955.5875
2023-04-16T04:04:16.911Z,955.5892
2023-04-16T04:05:20.821Z,955.5817
2023-04-16T04:06:24.744Z,955.5842
2023-04-16T04:07:28.632Z,955.6167
2023-04-16T04:08:32.532Z,955.5967
2023-04-16T04:09:36.637Z,955.5967
2023-04-16T04:10:40.530Z,955.6033
2023-04-16T04:11:44.693Z,955.6091
2023-04-16T04:12:48.568Z,955.6400
2023-04-16T04:13:52.465Z,955.6375
2023-04-16T04:14:56.349Z,955.6334
2023-04-16T04:16:00.260Z,955.6359
2023-04-16T04:17:04.143Z,955.6741
2023-04-16T04:18:08.044Z,955.6492
2023-04-16T04:19:12.338Z,955.6292
2023-04-16T04:20:16.243Z,955.6375
2023-04-16T04:21:20.153Z,955.6292
2023-04-16T04:22:24.067Z,955.6392
2023-04-16T04:23:27.948Z,955.6783
2023-04-16T04:24:28.291Z,955.6809
2023-04-16T04:25:32.172Z,955.6359
2023-04-16T04:26:36.132Z,955.6650
2023-04-16T04:27:39.971Z,955.7025
2023-04-16T04:28:43.847Z,955.7233
2023-04-16T04:29:47.958Z,955.7391
2023-04-16T04:30:51.845Z,955.7375
2023-04-16T04:31:55.993Z,955.7642
2023-04-16T04:32:59.945Z,955.7675
2023-04-16T04:34:04.128Z,955.7867
2023-04-16T04:35:08.013Z,955.8016
2023-04-16T04:36:11.891Z,955.8175
2023-04-16T04:37:15.791Z,955.8350
2023-04-16T04:38:19.675Z,955.8433
2023-04-16T04:39:23.555Z,955.8541
2023-04-16T04:40:27.478Z,955.8775
2023-04-16T04:41:31.585Z,955.8809
2023-04-16T04:42:35.479Z,955.8934
2023-04-16T04:43:39.391Z,955.9025
2023-04-16T04:44:43.301Z,955.9042
2023-04-16T04:45:47.300Z,955.9050
2023-04-16T04:46:51.459Z,955.9150
2023-04-16T04:47:55.391Z,955.9275
2023-04-16T04:48:59.502Z,955.9325
2023-04-16T04:50:03.449Z,955.9409
2023-04-16T04:51:07.333Z,955.9534
2023-04-16T04:52:11.243Z,955.9617
2023-04-16T04:53:15.200Z,955.9642
2023-04-16T04:54:19.060Z,955.9683
2023-04-16T04:55:22.968Z,955.9683
2023-04-16T04:56:26.907Z,955.9891
2023-04-16T04:57:30.809Z,955.9900
2023-04-16T04:58:34.922Z,955.9941
2023-04-16T04:59:38.812Z,956.0175
2023-04-16T05:00:42.691Z,956.0358
2023-04-16T05:01:46.881Z,956.0400
2023-04-16T05:02:50.906Z,956.0500
2023-04-16T05:03:55.139Z,956.0600
2023-04-16T05:04:59.044Z,956.0167
2023-04-16T05:06:02.930Z,956.0134
2023-04-16T05:07:06.827Z,956.0009
2023-04-16T05:08:10.710Z,955.9950
2023-04-16T05:09:14.600Z,956.0025
2023-04-16T05:10:18.482Z,955.9658
2023-04-16T05:11:22.589Z,955.9375
2023-04-16T05:12:26.480Z,955.9567
2023-04-16T05:13:30.367Z,955.9384
2023-04-16T05:14:34.257Z,955.9484
2023-04-16T05:15:38.131Z,955.9509
2023-04-16T05:16:42.019Z,955.9650
2023-04-16T05:17:45.909Z,955.9816
2023-04-16T05:18:49.838Z,955.9916
2023-04-16T05:19:53.756Z,955.9950
2023-04-16T05:20:57.619Z,955.9733
2023-04-16T05:22:01.493Z,955.9875
2023-04-16T05:23:05.405Z,955.9900
2023-04-16T05:24:09.706Z,955.9717
2023-04-16T05:25:13.591Z,955.9675
2023-04-16T05:26:17.688Z,955.9750
2023-04-16T05:27:21.561Z,955.9933
2023-04-16T05:28:25.458Z,956.0042
2023-04-16T05:29:29.341Z,956.0117
2023-04-16T05:30:33.266Z,956.0167
2023-04-16T05:31:37.334Z,956.0167
2023-04-16T05:32:41.267Z,956.0175
2023-04-16T05:33:45.421Z,956.0259
2023-04-16T05:34:49.291Z,956.0259
2023-04-16T05:35:53.204Z,956.0342
2023-04-16T05:36:57.105Z,956.0516
2023-04-16T05:38:01.007Z,956.0641
2023-04-16T05:39:05.148Z,956.0667
2023-04-16T05:40:09.031Z,956.0759
2023-04-16T05:41:12.929Z,956.0792
2023-04-16T05:42:16.848Z,956.0875
2023-04-16T05:43:20.736Z,956.0942
2023-04-16T05:44:24.661Z,956.0933
2023-04-16T05:45:28.545Z,956.0925
2023-04-16T05:46:32.771Z,956.0967
2023-04-16T05:47:36.738Z,956.0908
2023-04-16T05:48:40.813Z,956.0917
2023-04-16T05:49:44.858Z,956.0967
2023-04-16T05:50:48.729Z,956.1017
2023-04-16T05:51:52.635Z,956.1150
2023-04-16T05:52:56.537Z,956.1409
2023-04-16T05:54:00.679Z,956.1550
2023-04-16T05:55:04.602Z,956.1708
2023-04-16T05:56:08.725Z,956.1866
2023-04-16T05:57:12.624Z,956.1866
2023-04-16T05:58:16.496Z,956.2042
2023-04-16T05:59:20.385Z,956.2208
2023-04-16T06:00:24.280Z,956.2425
2023-04-16T06:01:28.425Z,956.2559
2023-04-16T06:02:32.427Z,956.2709
2023-04-16T06:03:36.720Z,956.2833
2023-04-16T06:04:40.634Z,956.2950
2023-04-16T06:05:44.571Z,956.3016
2023-04-16T06:06:48.423Z,956.3058
2023-04-16T06:07:52.323Z,956.3134
2023-04-16T06:08:56.207Z,956.3242
2023-04-16T06:10:00.110Z,956.3367
2023-04-16T06:11:04.232Z,956.3384
2023-04-16T06:12:08.158Z,956.3442
2023-04-16T06:13:12.054Z,956.3450
2023-04-16T06:14:16.165Z,956.3558
2023-04-16T06:15:20.069Z,956.3666
2023-04-16T06:16:24.015Z,956.3750
2023-04-16T06:17:27.915Z,956.3809
2023-04-16T06:18:32.030Z,956.3884
2023-04-16T06:19:35.916Z,956.3900
2023-04-16T06:20:39.824Z,956.3975
2023-04-16T06:21:43.730Z,956.4025
2023-04-16T06:22:47.603Z,956.4025
2023-04-16T06:23:51.853Z,956.3942
2023-04-16T06:24:55.746Z,956.3984
2023-04-16T06:25:59.624Z,956.4075
2023-04-16T06:27:03.664Z,956.4133
2023-04-16T06:28:07.563Z,956.4125
2023-04-16T06:29:11.765Z,956.4200
2023-04-16T06:30:15.724Z,956.4308
2023-04-16T06:31:19.879Z,956.4350
2023-04-16T06:32:23.816Z,956.4450
2023-04-16T06:33:27.725Z,956.4550
2023-04-16T06:34:31.623Z,956.4492
2023-04-16T06:35:35.509Z,956.4467
2023-04-16T06:36:39.408Z,956.4567
2023-04-16T06:37:43.306Z,956.4642
2023-04-16T06:38:47.178Z,956.4717
2023-04-16T06:39:51.053Z,956.4900
2023-04-16T06:40:55.158Z,956.4916
2023-04-16T06:41:59.055Z,956.4991
2023-04-16T06:43:02.935Z,956.4991
2023-04-16T06:44:06.830Z,956.5025
2023-04-16T06:45:10.699Z,956.5059
2023-04-16T06:46:14.828Z,956.5016
2023-04-16T06:47:18.766Z,956.5059
2023-04-16T06:48:22.910Z,956.5267
2023-04-16T06:49:26.814Z,956.5400
2023-04-16T06:50:30.696Z,956.5491
2023-04-16T06:51:34.587Z,956.5692
2023-04-16T06:52:38.490Z,956.5942
2023-04-16T06:53:42.616Z,956.6175
2023-04-16T06:54:46.506Z,956.6334
2023-04-16T06:55:50.390Z,956.6350
2023-04-16T06:56:54.308Z,956.6275
2023-04-16T06:57:58.198Z,956.6292
2023-04-16T06:59:02.344Z,956.6409
2023-04-16T07:00:06.249Z,956.6542
2023-04-16T07:01:10.405Z,956.6650
2023-04-16T07:02:14.380Z,956.6642
2023-04-16T07:03:18.518Z,956.6608
2023-04-16T07:04:22.491Z,956.6517
2023-04-16T07:05:26.377Z,956.6417
2023-04-16T07:06:30.286Z,956.6442
2023-04-16T07:07:34.184Z,956.6425
2023-04-16T07:08:38.418Z,956.6392
2023-04-16T07:09:42.301Z,956.6325
2023-04-16T07:10:46.415Z,956.6309
2023-04-16T07:11:50.322Z,956.6508
2023-04-16T07:12:54.209Z,956.6608
2023-04-16T07:13:58.120Z,956.6716
2023-04-16T07:15:01.986Z,956.6891
2023-04-16T07:16:05.910Z,956.6975
2023-04-16T07:17:09.778Z,956.6975
2023-04-16T07:18:13.958Z,956.6959
2023-04-16T07:19:17.998Z,956.7025
2023-04-16T07:20:21.895Z,956.6984
2023-04-16T07:21:25.793Z,956.7009
2023-04-16T07:22:29.696Z,956.7050
2023-04-16T07:23:33.633Z,956.7067
2023-04-16T07:24:37.513Z,956.7108
2023-04-16T07:25:41.481Z,956.7217
2023-04-16T07:26:45.384Z,956.7241
2023-04-16T07:27:49.273Z,956.7258
2023-04-16T07:28:53.182Z,956.7266
2023-04-16T07:29:57.084Z,956.7217
2023-04-16T07:31:00.974Z,956.7308
2023-04-16T07:32:04.990Z,956.7350
2023-04-16T07:33:09.050Z,956.7433
2023-04-16T07:34:12.913Z,956.7475
2023-04-16T07:35:16.823Z,956.7542
2023-04-16T07:36:20.712Z,956.7642
2023-04-16T07:37:24.615Z,956.7725
2023-04-16T07:38:28.754Z,956.7759
2023-04-16T07:39:32.688Z,956.7858
2023-04-16T07:40:36.704Z,956.8050
2023-04-16T07:41:40.591Z,956.8091
2023-04-16T07:42:44.452Z,956.8116
2023-04-16T07:43:48.334Z,956.8225
2023-04-16T07:44:52.240Z,956.8217
2023-04-16T07:45:56.490Z,956.8275
2023-04-16T07:47:00.464Z,956.8200
2023-04-16T07:48:04.774Z,956.8267
2023-04-16T07:49:08.876Z,956.8483
2023-04-16T07:50:12.863Z,956.8575
2023-04-16T07:51:16.759Z,956.8600
2023-04-16T07:52:20.668Z,956.8658
2023-04-16T07:53:24.555Z,956.8842
2023-04-16T07:54:29.175Z,956.9000
2023-04-16T07:55:33.108Z,956.9158
2023-04-16T07:56:37.052Z,956.9166
2023-04-16T07:57:40.917Z,956.9325
2023-04-16T07:58:44.834Z,956.9409
2023-04-16T07:59:48.705Z,956.9333
2023-04-16T08:00:52.815Z,956.9492
2023-04-16T08:01:56.727Z,956.9775
2023-04-16T08:03:00.883Z,957.0000
2023-04-16T08:04:04.995Z,957.0117
2023-04-16T08:05:08.959Z,957.0267
2023-04-16T08:06:12.838Z,957.0300
2023-04-16T08:07:16.753Z,957.0500
2023-04-16T08:08:16.915Z,957.0600
2023-04-16T08:09:20.803Z,957.0684
2023-04-16T08:10:24.899Z,957.0659
2023-04-16T08:11:28.816Z,957.0817
2023-04-16T08:12:32.715Z,957.0967
2023-04-16T08:13:36.614Z,957.1116
2023-04-16T08:14:40.482Z,957.1200
2023-04-16T08:15:44.634Z,957.1300
2023-04-16T08:16:48.533Z,957.1425
2023-04-16T08:17:52.756Z,957.1375
2023-04-16T08:18:56.609Z,957.1409
2023-04-16T08:20:00.506Z,957.1459
2023-04-16T08:21:04.392Z,957.1608
2023-04-16T08:22:08.316Z,957.1766
2023-04-16T08:23:12.195Z,957.1917
2023-04-16T08:24:16.127Z,957.1925
2023-04-16T08:25:20.000Z,957.2033
2023-04-16T08:26:24.002Z,957.2150
2023-04-16T08:27:27.901Z,957.2308
2023-04-16T08:28:32.024Z,957.2408
2023-04-16T08:29:35.935Z,957.2383
2023-04-16T08:30:39.841Z,957.2375
2023-04-16T08:31:43.775Z,957.2383
2023-04-16T08:32:50.045Z,957.2542
2023-04-16T08:33:48.852Z,957.2646
2023-04-16T08:34:52.753Z,957.2575
2023-04-16T08:35:56.991Z,957.2650
2023-04-16T08:37:00.994Z,957.2733
2023-04-16T08:38:04.912Z,957.2700
2023-04-16T08:39:08.913Z,957.2775
2023-04-16T08:40:13.083Z,957.2950
2023-04-16T08:41:17.218Z,957.2950
2023-04-16T08:42:21.131Z,957.3025
2023-04-16T08:43:25.013Z,957.3225
2023-04-16T08:44:28.939Z,957.3342
2023-04-16T08:45:33.118Z,957.3417
2023-04-16T08:46:37.024Z,957.3433
2023-04-16T08:47:40.911Z,957.3284
2023-04-16T08:48:44.787Z,957.3359
2023-04-16T08:49:48.721Z,957.3375
2023-04-16T08:50:52.580Z,957.3375
2023-04-16T08:51:54.080Z,957.3337
2023-04-16T08:52:58.213Z,957.3400
2023-04-16T08:54:02.310Z,957.3467
2023-04-16T08:55:06.221Z,957.3433
2023-04-16T08:56:10.104Z,957.3650
2023-04-16T08:57:13.987Z,957.3683
2023-04-16T08:58:18.202Z,957.3683
2023-04-16T08:59:22.089Z,957.3683
2023-04-16T09:00:26.218Z,957.3784
2023-04-16T09:01:30.145Z,957.3909
2023-04-16T09:02:34.134Z,957.4025
2023-04-16T09:03:38.345Z,957.4175
2023-04-16T09:04:42.383Z,957.4225
2023-04-16T09:05:46.280Z,957.4359
2023-04-16T09:06:50.163Z,957.4233
2023-04-16T09:07:54.059Z,957.4366
2023-04-16T09:08:57.953Z,957.4442
2023-04-16T09:10:01.914Z,957.4584
2023-04-16T09:11:05.814Z,957.4675
2023-04-16T09:12:09.700Z,957.4916
2023-04-16T09:13:13.596Z,957.4984
2023-04-16T09:14:17.482Z,957.5167
2023-04-16T09:15:21.598Z,957.5275
2023-04-16T09:16:25.534Z,957.5408
2023-04-16T09:17:29.497Z,957.5475
2023-04-16T09:18:33.372Z,957.5583
2023-04-16T09:19:37.270Z,957.5650
2023-04-16T09:20:41.320Z,957.5550
2023-04-16T09:21:45.207Z,957.5625
2023-04-16T09:22:49.104Z,957.5700
2023-04-16T09:23:52.984Z,957.5717
2023-04-16T09:24:56.885Z,957.5759
2023-04-16T09:26:00.962Z,957.5775
2023-04-16T09:27:04.862Z,957.5859
2023-04-16T09:28:09.016Z,957.5983
2023-04-16T09:29:12.887Z,957.5942
2023-04-16T09:30:16.793Z,957.5983
2023-04-16T09:31:21.013Z,957.6025
2023-04-16T09:32:24.911Z,957.6208
2023-04-16T09:33:28.808Z,957.6191
2023-04-16T09:34:32.703Z,957.6334
2023-04-16T09:35:36.849Z,957.6342
2023-04-16T09:36:40.737Z,957.6450
2023-04-16T09:37:44.875Z,957.6542
2023-04-16T09:38:48.751Z,957.6708
2023-04-16T09:39:52.655Z,957.6675
2023-04-16T09:40:56.723Z,957.6741
2023-04-16T09:42:00.613Z,957.6750
2023-04-16T09:43:05.018Z,957.6884
2023-04-16T09:44:08.918Z,957.6975
2023-04-16T09:45:12.791Z,957.7042
2023-04-16T09:46:16.704Z,957.6992
2023-04-16T09:47:20.598Z,957.7142
2023-04-16T09:48:24.476Z,957.7125
2023-04-16T09:49:28.407Z,957.7100
2023-04-16T09:50:32.315Z,957.7125
2023-04-16T09:51:36.220Z,957.7142
2023-04-16T09:52:40.341Z,957.7241
2023-04-16T09:53:44.220Z,957.7366
2023-04-16T09:54:48.116Z,957.7484
2023-04-16T09:55:52.248Z,957.7617
2023-04-16T09:56:56.161Z,957.7759
2023-04-16T09:58:00.084Z,957.7742
2023-04-16T09:59:04.006Z,957.7659
2023-04-16T10:00:07.926Z,957.7650
2023-04-16T10:01:12.006Z,957.7792
2023-04-16T10:02:16.560Z,957.7875
2023-04-16T10:03:20.657Z,957.7875
2023-04-16T10:04:24.572Z,957.7833
2023-04-16T10:05:28.525Z,957.7975
2023-04-16T10:06:32.407Z,957.7975
2023-04-16T10:07:36.528Z,957.8109
2023-04-16T10:08:40.408Z,957.8125
2023-04-16T10:09:44.272Z,957.8167
2023-04-16T10:10:48.153Z,957.8259
2023-04-16T10:11:52.051Z,957.8259
2023-04-16T10:12:56.188Z,957.8234
2023-04-16T10:14:00.172Z,957.8209
2023-04-16T10:15:04.311Z,957.8184
2023-04-16T10:16:08.201Z,957.8184
2023-04-16T10:17:12.117Z,957.8308
2023-04-16T10:18:16.008Z,957.8408
2023-04-16T10:19:19.929Z,957.8433
2023-04-16T10:20:23.823Z,957.8458
2023-04-16T10:21:27.740Z,957.8550
2023-04-16T10:22:31.614Z,957.8483
2023-04-16T10:23:35.508Z,957.8458
2023-04-16T10:24:39.417Z,957.8525
2023-04-16T10:25:43.545Z,957.8575
2023-04-16T10:26:47.428Z,957.8516
2023-04-16T10:27:51.560Z,957.8508
2023-04-16T10:28:55.456Z,957.8433
2023-04-16T10:29:59.342Z,957.8408
2023-04-16T10:31:03.281Z,957.8392
2023-04-16T10:32:07.159Z,957.8417
2023-04-16T10:33:11.093Z,957.8467
2023-04-16T10:34:14.964Z,957.8492
2023-04-16T10:35:18.870Z,957.8500
2023-04-16T10:36:22.779Z,957.8483
2023-04-16T10:37:26.976Z,957.8375
2023-04-16T10:38:30.880Z,957.8384
2023-04-16T10:39:34.805Z,957.8342
2023-04-16T10:40:38.725Z,957.8367
2023-04-16T10:41:42.628Z,957.8367
2023-04-16T10:42:46.535Z,957.8325
2023-04-16T10:43:50.450Z,957.8334
2023-04-16T10:44:54.342Z,957.8334
2023-04-16T10:45:58.482Z,957.8334
2023-04-16T10:47:02.418Z,957.8350
2023-04-16T10:48:06.350Z,957.8309
2023-04-16T10:49:10.319Z,957.8259
2023-04-16T10:50:14.545Z,957.8234
2023-04-16T10:51:18.466Z,957.8200
2023-04-16T10:52:22.393Z,957.8167
2023-04-16T10:53:26.269Z,957.8100
2023-04-16T10:54:30.143Z,957.8209
2023-04-16T10:55:34.025Z,957.8184
2023-04-16T10:56:37.908Z,957.8167
2023-04-16T10:57:41.787Z,957.8075
2023-04-16T10:58:45.673Z,957.8058
2023-04-16T10:59:49.902Z,957.8050
2023-04-16T11:00:53.810Z,957.8083
2023-04-16T11:01:57.798Z,957.8134
2023-04-16T11:03:01.768Z,957.8217
2023-04-16T11:04:05.793Z,957.8184
2023-04-16T11:05:09.755Z,957.8234
2023-04-16T11:06:13.676Z,957.8209
2023-04-16T11:07:17.568Z,957.8242
2023-04-16T11:08:21.440Z,957.8284
2023-04-16T11:09:25.347Z,957.8225
2023-04-16T11:10:29.459Z,957.8250
2023-04-16T11:11:33.375Z,957.8209
2023-04-16T11:12:37.399Z,957.8242
2023-04-16T11:13:43.133Z,957.8175
2023-04-16T11:14:42.124Z,957.8027
2023-04-16T11:15:46.274Z,957.8025
2023-04-16T11:16:50.159Z,957.8141
2023-04-16T11:17:54.152Z,957.8175
2023-04-16T11:18:58.027Z,957.8317
2023-04-16T11:20:02.136Z,957.8309
2023-04-16T11:21:06.042Z,957.8383
2023-04-16T11:22:09.960Z,957.8442
2023-04-16T11:23:10.310Z,957.8518
2023-04-16T11:24:14.254Z,957.8550
2023-04-16T11:25:18.135Z,957.8575
2023-04-16T11:26:22.016Z,957.8666
2023-04-16T11:27:25.915Z,957.8700
2023-04-16T11:28:29.801Z,957.8792
2023-04-16T11:29:33.689Z,957.8825
2023-04-16T11:30:37.584Z,957.8834
2023-04-16T11:31:41.495Z,957.8942
2023-04-16T11:32:45.419Z,957.9009
2023-04-16T11:33:49.276Z,957.9125
2023-04-16T11:34:53.387Z,957.9216
2023-04-16T11:35:57.279Z,957.9258
2023-04-16T11:37:01.169Z,957.9384
2023-04-16T11:38:05.317Z,957.9459
2023-04-16T11:39:09.323Z,957.9434
2023-04-16T11:40:13.624Z,957.9442
2023-04-16T11:41:17.480Z,957.9400
2023-04-16T11:42:21.613Z,957.9341
2023-04-16T11:43:25.504Z,957.9484
2023-04-16T11:44:29.386Z,957.9484
2023-04-16T11:45:33.282Z,957.9567
2023-04-16T11:46:37.196Z,957.9600
2023-04-16T11:47:41.123Z,957.9592
2023-04-16T11:48:45.045Z,957.9575
2023-04-16T11:49:48.953Z,957.9592
2023-04-16T11:50:52.826Z,957.9550
2023-04-16T11:51:56.742Z,957.9617
2023-04-16T11:53:00.829Z,957.9683
2023-04-16T11:54:04.733Z,957.9658
2023-04-16T11:55:08.845Z,957.9750
2023-04-16T11:56:12.743Z,957.9667
2023-04-16T11:57:16.652Z,957.9625
2023-04-16T11:58:20.541Z,957.9650
2023-04-16T11:59:21.384Z,957.9745
2023-04-16T12:00:25.270Z,957.9766
2023-04-16T12:01:29.178Z,957.9808
2023-04-16T12:02:33.148Z,957.9767
2023-04-16T12:03:37.339Z,957.9875
2023-04-16T12:04:41.485Z,957.9833
2023-04-16T12:05:45.387Z,957.9783
2023-04-16T12:06:49.293Z,957.9758
2023-04-16T12:07:53.478Z,957.9791
2023-04-16T12:08:57.366Z,957.9850
2023-04-16T12:10:01.276Z,957.9925
2023-04-16T12:11:05.174Z,958.0067
2023-04-16T12:12:09.319Z,958.0075
2023-04-16T12:13:13.218Z,958.0042
2023-04-16T12:14:17.121Z,958.0100
2023-04-16T12:15:21.249Z,958.0025
2023-04-16T12:16:25.157Z,958.0059
2023-04-16T12:17:29.084Z,958.0042
2023-04-16T12:18:32.935Z,958.0109
2023-04-16T12:19:36.842Z,958.0209
2023-04-16T12:20:40.723Z,958.0192
2023-04-16T12:21:44.604Z,958.0200
2023-04-16T12:22:48.751Z,958.0325
2023-04-16T12:23:52.627Z,958.0433
2023-04-16T12:24:56.757Z,958.0566
2023-04-16T12:26:00.646Z,958.0650
2023-04-16T12:27:04.552Z,958.0717
2023-04-16T12:28:08.421Z,958.0700
2023-04-16T12:29:12.313Z,958.0809
2023-04-16T12:30:16.432Z,958.0884